sensor_id;sensor_type;location;lat;lon;timestamp;P1;durP1;ratioP1;P2;durP2;ratioP2
75342;SDS011;63936;51.006;13.764;2023-09-12T00:00:02;14;;;11;;
75342;SDS011;63936;51.006;13.764;2023-09-12T00:02:02;16;;;11;;
75342;SDS011;63936;51.006;13.764;2023-09-12T00:04:02;15;;;11;;
75342;SDS011;63936;51.006;13.764;2023-09-12T00:06:02;15;;;11;;
75342;SDS011;63936;51.006;13.764;2023-09-12T00:08:01;15;;;11;;
75342;SDS011;63936;51.006;13.764;2023-09-12T00:10:03;14;;;11;;
75342;SDS011;63936;51.006;13.764;2023-09-12T00:12:02;13;;;10;;
75342;SDS011;63936;51.006;13.764;2023-09-12T00:14:02;12;;;11;;
75342;SDS011;63936;51.006;13.764;2023-09-12T00:16:02;13;;;11;;
75342;SDS011;63936;51.006;13.764;2023-09-12T00:18:03;14;;;12;;
75342;SDS011;63936;51.006;13.764;2023-09-12T00:20:03;13;;;11;;
75342;SDS011;63936;51.006;13.764;2023-09-12T00:22:02;14;;;11;;
75342;SDS011;63936;51.006;13.764;2023-09-12T00:24:02;14;;;11;;
75342;SDS011;63936;51.006;13.764;2023-09-12T00:26:01;14;;;10;;
75342;SDS011;63936;51.006;13.764;2023-09-12T00:28:02;14;;;11;;
75342;SDS011;63936;51.006;13.764;2023-09-12T00:30:05;13;;;9;;
75342;SDS011;63936;51.006;13.764;2023-09-12T00:32:01;13;;;9;;
75342;SDS011;63936;51.006;13.764;2023-09-12T00:34:02;14;;;9;;
75342;SDS011;63936;51.006;13.764;2023-09-12T00:36:03;14;;;9;;
75342;SDS011;63936;51.006;13.764;2023-09-12T00:38:03;12;;;9;;
75342;SDS011;63936;51.006;13.764;2023-09-12T00:40:03;11;;;9;;
75342;SDS011;63936;51.006;13.764;2023-09-12T00:42:03;11;;;9;;
75342;SDS011;63936;51.006;13.764;2023-09-12T00:44:02;13;;;9;;
75342;SDS011;63936;51.006;13.764;2023-09-12T00:46:02;12;;;9;;
75342;SDS011;63936;51.006;13.764;2023-09-12T00:48:02;12;;;9;;
75342;SDS011;63936;51.006;13.764;2023-09-12T00:50:02;11;;;9;;
75342;SDS011;63936;51.006;13.764;2023-09-12T00:52:02;12;;;9;;
75342;SDS011;63936;51.006;13.764;2023-09-12T00:54:02;11;;;9;;
75342;SDS011;63936;51.006;13.764;2023-09-12T00:56:01;11;;;9;;
75342;SDS011;63936;51.006;13.764;2023-09-12T00:58:01;11;;;9;;
75342;SDS011;63936;51.006;13.764;2023-09-12T01:00:02;12;;;9;;
75342;SDS011;63936;51.006;13.764;2023-09-12T01:02:01;12;;;9;;
75342;SDS011;63936;51.006;13.764;2023-09-12T01:04:01;11;;;9;;
75342;SDS011;63936;51.006;13.764;2023-09-12T01:06:01;11;;;9;;
75342;SDS011;63936;51.006;13.764;2023-09-12T01:08:01;13;;;9;;
75342;SDS011;63936;51.006;13.764;2023-09-12T01:10:02;13;;;9;;
75342;SDS011;63936;51.006;13.764;2023-09-12T01:12:02;12;;;10;;
75342;SDS011;63936;51.006;13.764;2023-09-12T01:14:02;11;;;10;;
75342;SDS011;63936;51.006;13.764;2023-09-12T01:16:02;12;;;9;;
75342;SDS011;63936;51.006;13.764;2023-09-12T01:18:01;12;;;10;;
75342;SDS011;63936;51.006;13.764;2023-09-12T01:20:01;12;;;9;;
75342;SDS011;63936;51.006;13.764;2023-09-12T01:22:06;12;;;9;;
75342;SDS011;63936;51.006;13.764;2023-09-12T01:24:04;11;;;9;;
75342;SDS011;63936;51.006;13.764;2023-09-12T01:26:04;14;;;9;;
75342;SDS011;63936;51.006;13.764;2023-09-12T01:28:02;13;;;10;;
75342;SDS011;63936;51.006;13.764;2023-09-12T01:30:03;14;;;9;;
75342;SDS011;63936;51.006;13.764;2023-09-12T01:32:01;13;;;9;;
75342;SDS011;63936;51.006;13.764;2023-09-12T01:34:08;12;;;9;;
75342;SDS011;63936;51.006;13.764;2023-09-12T01:36:01;13;;;9;;
75342;SDS011;63936;51.006;13.764;2023-09-12T01:38:01;14;;;9;;
75342;SDS011;63936;51.006;13.764;2023-09-12T01:40:02;14;;;9;;
75342;SDS011;63936;51.006;13.764;2023-09-12T01:42:01;11;;;8;;
75342;SDS011;63936;51.006;13.764;2023-09-12T01:44:01;11;;;9;;
75342;SDS011;63936;51.006;13.764;2023-09-12T01:46:01;13;;;9;;
75342;SDS011;63936;51.006;13.764;2023-09-12T01:48:01;13;;;9;;
75342;SDS011;63936;51.006;13.764;2023-09-12T01:50:02;12;;;9;;
75342;SDS011;63936;51.006;13.764;2023-09-12T01:52:01;11;;;9;;
75342;SDS011;63936;51.006;13.764;2023-09-12T01:54:01;12;;;9;;
75342;SDS011;63936;51.006;13.764;2023-09-12T01:56:02;12;;;9;;
75342;SDS011;63936;51.006;13.764;2023-09-12T01:58:02;13;;;9;;
75342;SDS011;63936;51.006;13.764;2023-09-12T02:00:03;14;;;9;;
75342;SDS011;63936;51.006;13.764;2023-09-12T02:02:01;13;;;10;;
75342;SDS011;63936;51.006;13.764;2023-09-12T02:04:01;12;;;10;;
75342;SDS011;63936;51.006;13.764;2023-09-12T02:06:01;16;;;10;;
75342;SDS011;63936;51.006;13.764;2023-09-12T02:08:01;15;;;10;;
75342;SDS011;63936;51.006;13.764;2023-09-12T02:10:02;12;;;10;;
75342;SDS011;63936;51.006;13.764;2023-09-12T02:12:01;12;;;10;;
75342;SDS011;63936;51.006;13.764;2023-09-12T02:14:01;12;;;9;;
75342;SDS011;63936;51.006;13.764;2023-09-12T02:16:01;12;;;9;;
75342;SDS011;63936;51.006;13.764;2023-09-12T02:18:01;16;;;9;;
75342;SDS011;63936;51.006;13.764;2023-09-12T02:20:02;16;;;9;;
75342;SDS011;63936;51.006;13.764;2023-09-12T02:22:01;13;;;9;;
75342;SDS011;63936;51.006;13.764;2023-09-12T02:24:01;13;;;9;;
75342;SDS011;63936;51.006;13.764;2023-09-12T02:26:02;12;;;10;;
75342;SDS011;63936;51.006;13.764;2023-09-12T02:28:02;12;;;10;;
75342;SDS011;63936;51.006;13.764;2023-09-12T02:30:02;13;;;11;;
75342;SDS011;63936;51.006;13.764;2023-09-12T02:32:01;13;;;10;;
75342;SDS011;63936;51.006;13.764;2023-09-12T02:34:01;12;;;9;;
75342;SDS011;63936;51.006;13.764;2023-09-12T02:36:01;12;;;10;;
75342;SDS011;63936;51.006;13.764;2023-09-12T02:38:01;13;;;10;;
75342;SDS011;63936;51.006;13.764;2023-09-12T02:40:02;13;;;10;;
75342;SDS011;63936;51.006;13.764;2023-09-12T02:42:01;13;;;10;;
75342;SDS011;63936;51.006;13.764;2023-09-12T02:44:01;13;;;10;;
75342;SDS011;63936;51.006;13.764;2023-09-12T02:46:01;12;;;10;;
75342;SDS011;63936;51.006;13.764;2023-09-12T02:48:01;12;;;10;;
75342;SDS011;63936;51.006;13.764;2023-09-12T02:50:02;12;;;10;;
75342;SDS011;63936;51.006;13.764;2023-09-12T02:52:01;14;;;10;;
75342;SDS011;63936;51.006;13.764;2023-09-12T02:54:01;13;;;10;;
75342;SDS011;63936;51.006;13.764;2023-09-12T02:56:02;13;;;9;;
75342;SDS011;63936;51.006;13.764;2023-09-12T02:58:02;12;;;10;;
75342;SDS011;63936;51.006;13.764;2023-09-12T03:00:03;12;;;10;;
75342;SDS011;63936;51.006;13.764;2023-09-12T03:02:01;14;;;11;;
75342;SDS011;63936;51.006;13.764;2023-09-12T03:04:02;13;;;10;;
75342;SDS011;63936;51.006;13.764;2023-09-12T03:06:02;13;;;11;;
75342;SDS011;63936;51.006;13.764;2023-09-12T03:08:02;13;;;11;;
75342;SDS011;63936;51.006;13.764;2023-09-12T03:10:01;13;;;10;;
75342;SDS011;63936;51.006;13.764;2023-09-12T03:12:01;13;;;10;;
75342;SDS011;63936;51.006;13.764;2023-09-12T03:14:01;14;;;11;;
75342;SDS011;63936;51.006;13.764;2023-09-12T03:16:01;12;;;10;;
75342;SDS011;63936;51.006;13.764;2023-09-12T03:18:01;11;;;9;;
75342;SDS011;63936;51.006;13.764;2023-09-12T03:20:02;11;;;9;;
75342;SDS011;63936;51.006;13.764;2023-09-12T03:22:01;12;;;9;;
75342;SDS011;63936;51.006;13.764;2023-09-12T03:24:01;14;;;9;;
75342;SDS011;63936;51.006;13.764;2023-09-12T03:26:01;13;;;9;;
75342;SDS011;63936;51.006;13.764;2023-09-12T03:28:01;16;;;10;;
75342;SDS011;63936;51.006;13.764;2023-09-12T03:30:02;15;;;9;;
75342;SDS011;63936;51.006;13.764;2023-09-12T03:32:01;17;;;10;;
75342;SDS011;63936;51.006;13.764;2023-09-12T03:34:01;13;;;9;;
75342;SDS011;63936;51.006;13.764;2023-09-12T03:36:02;12;;;9;;
75342;SDS011;63936;51.006;13.764;2023-09-12T03:38:02;12;;;9;;
75342;SDS011;63936;51.006;13.764;2023-09-12T03:40:01;12;;;10;;
75342;SDS011;63936;51.006;13.764;2023-09-12T03:42:01;12;;;10;;
75342;SDS011;63936;51.006;13.764;2023-09-12T03:44:01;13;;;10;;
75342;SDS011;63936;51.006;13.764;2023-09-12T03:46:01;12;;;10;;
75342;SDS011;63936;51.006;13.764;2023-09-12T03:48:01;12;;;9;;
75342;SDS011;63936;51.006;13.764;2023-09-12T03:50:02;12;;;10;;
75342;SDS011;63936;51.006;13.764;2023-09-12T03:52:02;12;;;9;;
75342;SDS011;63936;51.006;13.764;2023-09-12T03:54:02;12;;;9;;
75342;SDS011;63936;51.006;13.764;2023-09-12T03:56:01;12;;;9;;
75342;SDS011;63936;51.006;13.764;2023-09-12T03:58:01;12;;;8;;
75342;SDS011;63936;51.006;13.764;2023-09-12T04:00:01;12;;;9;;
75342;SDS011;63936;51.006;13.764;2023-09-12T04:02:02;12;;;10;;
75342;SDS011;63936;51.006;13.764;2023-09-12T04:04:03;10;;;9;;
75342;SDS011;63936;51.006;13.764;2023-09-12T04:06:02;11;;;9;;
75342;SDS011;63936;51.006;13.764;2023-09-12T04:08:03;13;;;9;;
75342;SDS011;63936;51.006;13.764;2023-09-12T04:10:02;11;;;9;;
75342;SDS011;63936;51.006;13.764;2023-09-12T04:12:02;12;;;9;;
75342;SDS011;63936;51.006;13.764;2023-09-12T04:14:02;11;;;9;;
75342;SDS011;63936;51.006;13.764;2023-09-12T04:16:01;12;;;9;;
75342;SDS011;63936;51.006;13.764;2023-09-12T04:18:02;12;;;9;;
75342;SDS011;63936;51.006;13.764;2023-09-12T04:20:03;12;;;10;;
75342;SDS011;63936;51.006;13.764;2023-09-12T04:22:02;12;;;10;;
75342;SDS011;63936;51.006;13.764;2023-09-12T04:24:01;13;;;9;;
75342;SDS011;63936;51.006;13.764;2023-09-12T04:26:01;14;;;10;;
75342;SDS011;63936;51.006;13.764;2023-09-12T04:28:02;12;;;10;;
75342;SDS011;63936;51.006;13.764;2023-09-12T04:30:03;12;;;10;;
75342;SDS011;63936;51.006;13.764;2023-09-12T04:32:02;11;;;9;;
75342;SDS011;63936;51.006;13.764;2023-09-12T04:34:02;11;;;9;;
75342;SDS011;63936;51.006;13.764;2023-09-12T04:36:02;13;;;9;;
75342;SDS011;63936;51.006;13.764;2023-09-12T04:38:02;13;;;10;;
75342;SDS011;63936;51.006;13.764;2023-09-12T04:40:03;12;;;10;;
75342;SDS011;63936;51.006;13.764;2023-09-12T04:42:03;12;;;10;;
75342;SDS011;63936;51.006;13.764;2023-09-12T04:44:01;12;;;10;;
75342;SDS011;63936;51.006;13.764;2023-09-12T04:46:02;14;;;10;;
75342;SDS011;63936;51.006;13.764;2023-09-12T04:48:02;11;;;9;;
75342;SDS011;63936;51.006;13.764;2023-09-12T04:50:04;11;;;9;;
75342;SDS011;63936;51.006;13.764;2023-09-12T04:52:02;13;;;8;;
75342;SDS011;63936;51.006;13.764;2023-09-12T04:54:01;12;;;8;;
75342;SDS011;63936;51.006;13.764;2023-09-12T04:56:02;10;;;8;;
75342;SDS011;63936;51.006;13.764;2023-09-12T04:58:02;10;;;8;;
75342;SDS011;63936;51.006;13.764;2023-09-12T05:00:03;10;;;8;;
75342;SDS011;63936;51.006;13.764;2023-09-12T05:02:01;11;;;8;;
75342;SDS011;63936;51.006;13.764;2023-09-12T05:04:01;10;;;8;;
75342;SDS011;63936;51.006;13.764;2023-09-12T05:06:01;12;;;8;;
75342;SDS011;63936;51.006;13.764;2023-09-12T05:08:01;10;;;8;;
75342;SDS011;63936;51.006;13.764;2023-09-12T05:10:02;11;;;8;;
75342;SDS011;63936;51.006;13.764;2023-09-12T05:12:02;10;;;7;;
75342;SDS011;63936;51.006;13.764;2023-09-12T05:14:02;10;;;8;;
75342;SDS011;63936;51.006;13.764;2023-09-12T05:16:01;11;;;7;;
75342;SDS011;63936;51.006;13.764;2023-09-12T05:18:02;10;;;7;;
75342;SDS011;63936;51.006;13.764;2023-09-12T05:20:03;11;;;8;;
75342;SDS011;63936;51.006;13.764;2023-09-12T05:22:01;10;;;8;;
75342;SDS011;63936;51.006;13.764;2023-09-12T05:24:01;11;;;8;;
75342;SDS011;63936;51.006;13.764;2023-09-12T05:26:01;12;;;8;;
75342;SDS011;63936;51.006;13.764;2023-09-12T05:28:02;14;;;8;;
75342;SDS011;63936;51.006;13.764;2023-09-12T05:30:02;12;;;8;;
75342;SDS011;63936;51.006;13.764;2023-09-12T05:32:02;11;;;8;;
75342;SDS011;63936;51.006;13.764;2023-09-12T05:34:02;11;;;8;;
75342;SDS011;63936;51.006;13.764;2023-09-12T05:36:01;10;;;7;;
75342;SDS011;63936;51.006;13.764;2023-09-12T05:38:02;12;;;8;;
75342;SDS011;63936;51.006;13.764;2023-09-12T05:40:03;13;;;7;;
75342;SDS011;63936;51.006;13.764;2023-09-12T05:42:02;11;;;7;;
75342;SDS011;63936;51.006;13.764;2023-09-12T05:44:02;9;;;7;;
75342;SDS011;63936;51.006;13.764;2023-09-12T05:46:01;10;;;7;;
75342;SDS011;63936;51.006;13.764;2023-09-12T05:48:01;10;;;7;;
75342;SDS011;63936;51.006;13.764;2023-09-12T05:50:02;10;;;7;;
75342;SDS011;63936;51.006;13.764;2023-09-12T05:52:01;11;;;8;;
75342;SDS011;63936;51.006;13.764;2023-09-12T05:54:02;11;;;7;;
75342;SDS011;63936;51.006;13.764;2023-09-12T05:56:02;12;;;7;;
75342;SDS011;63936;51.006;13.764;2023-09-12T05:58:02;13;;;8;;
75342;SDS011;63936;51.006;13.764;2023-09-12T06:00:02;13;;;7;;
75342;SDS011;63936;51.006;13.764;2023-09-12T06:02:02;13;;;7;;
75342;SDS011;63936;51.006;13.764;2023-09-12T06:04:02;16;;;7;;
75342;SDS011;63936;51.006;13.764;2023-09-12T06:06:01;13;;;7;;
75342;SDS011;63936;51.006;13.764;2023-09-12T06:08:01;14;;;7;;
75342;SDS011;63936;51.006;13.764;2023-09-12T06:10:04;13;;;7;;
75342;SDS011;63936;51.006;13.764;2023-09-12T06:12:02;12;;;6;;
75342;SDS011;63936;51.006;13.764;2023-09-12T06:14:02;11;;;6;;
75342;SDS011;63936;51.006;13.764;2023-09-12T06:16:01;10;;;7;;
75342;SDS011;63936;51.006;13.764;2023-09-12T06:18:01;10;;;6;;
75342;SDS011;63936;51.006;13.764;2023-09-12T06:20:02;12;;;7;;
75342;SDS011;63936;51.006;13.764;2023-09-12T06:22:01;13;;;6;;
75342;SDS011;63936;51.006;13.764;2023-09-12T06:24:09;12;;;6;;
75342;SDS011;63936;51.006;13.764;2023-09-12T06:26:02;13;;;7;;
75342;SDS011;63936;51.006;13.764;2023-09-12T06:28:02;10;;;6;;
75342;SDS011;63936;51.006;13.764;2023-09-12T06:30:03;9;;;6;;
75342;SDS011;63936;51.006;13.764;2023-09-12T06:32:01;11;;;6;;
75342;SDS011;63936;51.006;13.764;2023-09-12T06:34:01;11;;;6;;
75342;SDS011;63936;51.006;13.764;2023-09-12T06:36:01;11;;;6;;
75342;SDS011;63936;51.006;13.764;2023-09-12T06:38:01;15;;;6;;
75342;SDS011;63936;51.006;13.764;2023-09-12T06:40:02;15;;;6;;
75342;SDS011;63936;51.006;13.764;2023-09-12T06:42:01;16;;;6;;
75342;SDS011;63936;51.006;13.764;2023-09-12T06:44:01;12;;;7;;
75342;SDS011;63936;51.006;13.764;2023-09-12T06:46:01;11;;;6;;
75342;SDS011;63936;51.006;13.764;2023-09-12T06:48:01;16;;;6;;
75342;SDS011;63936;51.006;13.764;2023-09-12T06:50:02;16;;;6;;
75342;SDS011;63936;51.006;13.764;2023-09-12T06:52:02;12;;;6;;
75342;SDS011;63936;51.006;13.764;2023-09-12T06:54:02;11;;;6;;
75342;SDS011;63936;51.006;13.764;2023-09-12T06:56:01;11;;;6;;
75342;SDS011;63936;51.006;13.764;2023-09-12T06:58:01;18;;;6;;
75342;SDS011;63936;51.006;13.764;2023-09-12T07:00:02;16;;;7;;
75342;SDS011;63936;51.006;13.764;2023-09-12T07:02:02;14;;;6;;
75342;SDS011;63936;51.006;13.764;2023-09-12T07:04:02;11;;;5;;
75342;SDS011;63936;51.006;13.764;2023-09-12T07:06:01;14;;;5;;
75342;SDS011;63936;51.006;13.764;2023-09-12T07:08:01;14;;;6;;
75342;SDS011;63936;51.006;13.764;2023-09-12T07:10:02;14;;;6;;
75342;SDS011;63936;51.006;13.764;2023-09-12T07:12:02;13;;;6;;
75342;SDS011;63936;51.006;13.764;2023-09-12T07:14:02;12;;;5;;
75342;SDS011;63936;51.006;13.764;2023-09-12T07:16:02;14;;;6;;
75342;SDS011;63936;51.006;13.764;2023-09-12T07:18:02;13;;;5;;
75342;SDS011;63936;51.006;13.764;2023-09-12T07:20:02;13;;;5;;
75342;SDS011;63936;51.006;13.764;2023-09-12T07:22:01;12;;;5;;
75342;SDS011;63936;51.006;13.764;2023-09-12T07:24:01;11;;;6;;
75342;SDS011;63936;51.006;13.764;2023-09-12T07:26:01;12;;;6;;
75342;SDS011;63936;51.006;13.764;2023-09-12T07:28:01;17;;;6;;
75342;SDS011;63936;51.006;13.764;2023-09-12T07:30:02;17;;;6;;
75342;SDS011;63936;51.006;13.764;2023-09-12T07:32:02;13;;;6;;
75342;SDS011;63936;51.006;13.764;2023-09-12T07:34:02;13;;;5;;
75342;SDS011;63936;51.006;13.764;2023-09-12T07:36:02;10;;;5;;
75342;SDS011;63936;51.006;13.764;2023-09-12T07:38:02;10;;;5;;
75342;SDS011;63936;51.006;13.764;2023-09-12T07:40:02;11;;;5;;
75342;SDS011;63936;51.006;13.764;2023-09-12T07:42:02;11;;;5;;
75342;SDS011;63936;51.006;13.764;2023-09-12T07:44:02;14;;;6;;
75342;SDS011;63936;51.006;13.764;2023-09-12T07:46:01;13;;;6;;
75342;SDS011;63936;51.006;13.764;2023-09-12T07:48:01;12;;;5;;
75342;SDS011;63936;51.006;13.764;2023-09-12T07:50:01;12;;;5;;
75342;SDS011;63936;51.006;13.764;2023-09-12T07:52:01;13;;;5;;
75342;SDS011;63936;51.006;13.764;2023-09-12T07:54:01;10;;;5;;
75342;SDS011;63936;51.006;13.764;2023-09-12T07:56:01;14;;;6;;
75342;SDS011;63936;51.006;13.764;2023-09-12T07:58:01;14;;;6;;
75342;SDS011;63936;51.006;13.764;2023-09-12T08:00:03;14;;;6;;
75342;SDS011;63936;51.006;13.764;2023-09-12T08:02:01;14;;;6;;
75342;SDS011;63936;51.006;13.764;2023-09-12T08:04:02;14;;;6;;
75342;SDS011;63936;51.006;13.764;2023-09-12T08:06:01;12;;;5;;
75342;SDS011;63936;51.006;13.764;2023-09-12T08:08:01;8;;;4;;
75342;SDS011;63936;51.006;13.764;2023-09-12T08:10:02;8;;;4;;
75342;SDS011;63936;51.006;13.764;2023-09-12T08:12:02;13;;;4;;
75342;SDS011;63936;51.006;13.764;2023-09-12T08:14:01;14;;;5;;
75342;SDS011;63936;51.006;13.764;2023-09-12T08:16:01;14;;;5;;
75342;SDS011;63936;51.006;13.764;2023-09-12T08:18:01;14;;;5;;
75342;SDS011;63936;51.006;13.764;2023-09-12T08:20:02;10;;;5;;
75342;SDS011;63936;51.006;13.764;2023-09-12T08:22:01;8;;;5;;
75342;SDS011;63936;51.006;13.764;2023-09-12T08:24:01;8;;;4;;
75342;SDS011;63936;51.006;13.764;2023-09-12T08:26:02;8;;;4;;
75342;SDS011;63936;51.006;13.764;2023-09-12T08:28:02;8;;;4;;
75342;SDS011;63936;51.006;13.764;2023-09-12T08:30:02;10;;;5;;
75342;SDS011;63936;51.006;13.764;2023-09-12T08:32:01;10;;;5;;
75342;SDS011;63936;51.006;13.764;2023-09-12T08:34:01;10;;;5;;
75342;SDS011;63936;51.006;13.764;2023-09-12T08:36:01;10;;;4;;
75342;SDS011;63936;51.006;13.764;2023-09-12T08:38:01;10;;;5;;
75342;SDS011;63936;51.006;13.764;2023-09-12T08:40:02;9;;;5;;
75342;SDS011;63936;51.006;13.764;2023-09-12T08:42:02;9;;;4;;
75342;SDS011;63936;51.006;13.764;2023-09-12T08:44:01;8;;;4;;
75342;SDS011;63936;51.006;13.764;2023-09-12T08:46:01;8;;;4;;
75342;SDS011;63936;51.006;13.764;2023-09-12T08:48:01;8;;;4;;
75342;SDS011;63936;51.006;13.764;2023-09-12T08:50:02;8;;;4;;
75342;SDS011;63936;51.006;13.764;2023-09-12T08:52:01;9;;;4;;
75342;SDS011;63936;51.006;13.764;2023-09-12T08:54:01;10;;;4;;
75342;SDS011;63936;51.006;13.764;2023-09-12T08:56:01;9;;;4;;
75342;SDS011;63936;51.006;13.764;2023-09-12T08:58:02;9;;;4;;
75342;SDS011;63936;51.006;13.764;2023-09-12T09:00:02;8;;;4;;
75342;SDS011;63936;51.006;13.764;2023-09-12T09:02:01;8;;;4;;
75342;SDS011;63936;51.006;13.764;2023-09-12T09:04:01;8;;;4;;
75342;SDS011;63936;51.006;13.764;2023-09-12T09:06:01;9;;;4;;
75342;SDS011;63936;51.006;13.764;2023-09-12T09:08:01;9;;;4;;
75342;SDS011;63936;51.006;13.764;2023-09-12T09:10:02;10;;;4;;
75342;SDS011;63936;51.006;13.764;2023-09-12T09:12:05;10;;;4;;
75342;SDS011;63936;51.006;13.764;2023-09-12T09:14:02;10;;;4;;
75342;SDS011;63936;51.006;13.764;2023-09-12T09:16:16;9;;;4;;
75342;SDS011;63936;51.006;13.764;2023-09-12T09:18:01;9;;;4;;
75342;SDS011;63936;51.006;13.764;2023-09-12T09:20:01;9;;;4;;
75342;SDS011;63936;51.006;13.764;2023-09-12T09:22:04;9;;;4;;
75342;SDS011;63936;51.006;13.764;2023-09-12T09:24:02;11;;;4;;
75342;SDS011;63936;51.006;13.764;2023-09-12T09:26:01;11;;;4;;
75342;SDS011;63936;51.006;13.764;2023-09-12T09:28:02;10;;;4;;
75342;SDS011;63936;51.006;13.764;2023-09-12T09:30:02;9;;;4;;
75342;SDS011;63936;51.006;13.764;2023-09-12T09:32:01;9;;;4;;
75342;SDS011;63936;51.006;13.764;2023-09-12T09:34:01;9;;;4;;
75342;SDS011;63936;51.006;13.764;2023-09-12T09:36:02;9;;;4;;
75342;SDS011;63936;51.006;13.764;2023-09-12T09:38:02;8;;;4;;
75342;SDS011;63936;51.006;13.764;2023-09-12T09:40:03;8;;;4;;
75342;SDS011;63936;51.006;13.764;2023-09-12T09:42:02;8;;;4;;
75342;SDS011;63936;51.006;13.764;2023-09-12T09:44:01;9;;;4;;
75342;SDS011;63936;51.006;13.764;2023-09-12T09:46:01;9;;;4;;
75342;SDS011;63936;51.006;13.764;2023-09-12T09:48:04;9;;;4;;
75342;SDS011;63936;51.006;13.764;2023-09-12T09:50:01;10;;;4;;
75342;SDS011;63936;51.006;13.764;2023-09-12T09:52:03;9;;;3;;
75342;SDS011;63936;51.006;13.764;2023-09-12T09:54:01;9;;;3;;
75342;SDS011;63936;51.006;13.764;2023-09-12T09:56:09;8;;;3;;
75342;SDS011;63936;51.006;13.764;2023-09-12T09:58:01;8;;;3;;
75342;SDS011;63936;51.006;13.764;2023-09-12T10:00:02;8;;;3;;
75342;SDS011;63936;51.006;13.764;2023-09-12T10:02:01;8;;;3;;
75342;SDS011;63936;51.006;13.764;2023-09-12T10:04:01;6;;;3;;
75342;SDS011;63936;51.006;13.764;2023-09-12T10:06:01;9;;;3;;
75342;SDS011;63936;51.006;13.764;2023-09-12T10:08:01;8;;;3;;
75342;SDS011;63936;51.006;13.764;2023-09-12T10:10:02;6;;;3;;
75342;SDS011;63936;51.006;13.764;2023-09-12T10:12:01;8;;;3;;
75342;SDS011;63936;51.006;13.764;2023-09-12T10:14:03;6;;;3;;
75342;SDS011;63936;51.006;13.764;2023-09-12T10:16:01;8;;;3;;
75342;SDS011;63936;51.006;13.764;2023-09-12T10:18:02;7;;;3;;
75342;SDS011;63936;51.006;13.764;2023-09-12T10:20:03;7;;;3;;
75342;SDS011;63936;51.006;13.764;2023-09-12T10:22:03;7;;;3;;
75342;SDS011;63936;51.006;13.764;2023-09-12T10:24:03;8;;;3;;
75342;SDS011;63936;51.006;13.764;2023-09-12T10:26:02;7;;;3;;
75342;SDS011;63936;51.006;13.764;2023-09-12T10:28:02;7;;;2;;
75342;SDS011;63936;51.006;13.764;2023-09-12T10:30:03;6;;;3;;
75342;SDS011;63936;51.006;13.764;2023-09-12T10:32:01;9;;;3;;
75342;SDS011;63936;51.006;13.764;2023-09-12T10:34:01;8;;;3;;
75342;SDS011;63936;51.006;13.764;2023-09-12T10:36:02;6;;;3;;
75342;SDS011;63936;51.006;13.764;2023-09-12T10:38:02;9;;;3;;
75342;SDS011;63936;51.006;13.764;2023-09-12T10:40:02;11;;;3;;
75342;SDS011;63936;51.006;13.764;2023-09-12T10:42:01;8;;;3;;
75342;SDS011;63936;51.006;13.764;2023-09-12T10:44:01;8;;;3;;
75342;SDS011;63936;51.006;13.764;2023-09-12T10:46:01;9;;;3;;
75342;SDS011;63936;51.006;13.764;2023-09-12T10:48:01;9;;;3;;
75342;SDS011;63936;51.006;13.764;2023-09-12T10:50:02;7;;;3;;
75342;SDS011;63936;51.006;13.764;2023-09-12T10:52:02;8;;;3;;
75342;SDS011;63936;51.006;13.764;2023-09-12T10:54:02;10;;;3;;
75342;SDS011;63936;51.006;13.764;2023-09-12T10:56:14;11;;;3;;
75342;SDS011;63936;51.006;13.764;2023-09-12T10:58:03;8;;;3;;
75342;SDS011;63936;51.006;13.764;2023-09-12T11:00:10;10;;;3;;
75342;SDS011;63936;51.006;13.764;2023-09-12T11:02:33;8;;;3;;
75342;SDS011;63936;51.006;13.764;2023-09-12T11:04:05;9;;;3;;
75342;SDS011;63936;51.006;13.764;2023-09-12T11:06:02;7;;;3;;
75342;SDS011;63936;51.006;13.764;2023-09-12T11:08:02;8;;;3;;
75342;SDS011;63936;51.006;13.764;2023-09-12T11:10:16;10;;;3;;
75342;SDS011;63936;51.006;13.764;2023-09-12T11:12:02;14;;;3;;
75342;SDS011;63936;51.006;13.764;2023-09-12T11:14:02;8;;;3;;
75342;SDS011;63936;51.006;13.764;2023-09-12T11:16:09;8;;;3;;
75342;SDS011;63936;51.006;13.764;2023-09-12T11:18:02;13;;;3;;
75342;SDS011;63936;51.006;13.764;2023-09-12T11:20:02;8;;;3;;
75342;SDS011;63936;51.006;13.764;2023-09-12T11:22:02;14;;;3;;
75342;SDS011;63936;51.006;13.764;2023-09-12T11:24:02;8;;;3;;
75342;SDS011;63936;51.006;13.764;2023-09-12T11:26:02;10;;;3;;
75342;SDS011;63936;51.006;13.764;2023-09-12T11:28:02;9;;;3;;
75342;SDS011;63936;51.006;13.764;2023-09-12T11:30:04;9;;;3;;
75342;SDS011;63936;51.006;13.764;2023-09-12T11:32:01;7;;;2;;
75342;SDS011;63936;51.006;13.764;2023-09-12T11:34:01;9;;;2;;
75342;SDS011;63936;51.006;13.764;2023-09-12T11:36:01;11;;;2;;
75342;SDS011;63936;51.006;13.764;2023-09-12T11:38:01;8;;;3;;
75342;SDS011;63936;51.006;13.764;2023-09-12T11:40:03;9;;;3;;
75342;SDS011;63936;51.006;13.764;2023-09-12T11:42:02;14;;;3;;
75342;SDS011;63936;51.006;13.764;2023-09-12T11:44:02;13;;;2;;
75342;SDS011;63936;51.006;13.764;2023-09-12T11:46:01;12;;;2;;
75342;SDS011;63936;51.006;13.764;2023-09-12T11:48:02;18;;;2;;
75342;SDS011;63936;51.006;13.764;2023-09-12T11:50:02;12;;;3;;
75342;SDS011;63936;51.006;13.764;2023-09-12T11:52:01;12;;;3;;
75342;SDS011;63936;51.006;13.764;2023-09-12T11:54:01;15;;;3;;
75342;SDS011;63936;51.006;13.764;2023-09-12T11:56:02;10;;;3;;
75342;SDS011;63936;51.006;13.764;2023-09-12T11:58:02;11;;;3;;
75342;SDS011;63936;51.006;13.764;2023-09-12T12:00:03;8;;;3;;
75342;SDS011;63936;51.006;13.764;2023-09-12T12:02:01;11;;;3;;
75342;SDS011;63936;51.006;13.764;2023-09-12T12:04:01;11;;;3;;
75342;SDS011;63936;51.006;13.764;2023-09-12T12:06:01;13;;;3;;
75342;SDS011;63936;51.006;13.764;2023-09-12T12:08:01;9;;;3;;
75342;SDS011;63936;51.006;13.764;2023-09-12T12:10:02;8;;;3;;
75342;SDS011;63936;51.006;13.764;2023-09-12T12:12:03;8;;;2;;
75342;SDS011;63936;51.006;13.764;2023-09-12T12:14:09;8;;;3;;
75342;SDS011;63936;51.006;13.764;2023-09-12T12:16:13;11;;;3;;
75342;SDS011;63936;51.006;13.764;2023-09-12T12:18:01;11;;;2;;
75342;SDS011;63936;51.006;13.764;2023-09-12T12:20:01;9;;;3;;
75342;SDS011;63936;51.006;13.764;2023-09-12T12:22:01;10;;;3;;
75342;SDS011;63936;51.006;13.764;2023-09-12T12:24:01;13;;;3;;
75342;SDS011;63936;51.006;13.764;2023-09-12T12:26:02;7;;;2;;
75342;SDS011;63936;51.006;13.764;2023-09-12T12:28:01;9;;;3;;
75342;SDS011;63936;51.006;13.764;2023-09-12T12:30:02;14;;;3;;
75342;SDS011;63936;51.006;13.764;2023-09-12T12:32:02;9;;;3;;
75342;SDS011;63936;51.006;13.764;2023-09-12T12:34:01;12;;;4;;
75342;SDS011;63936;51.006;13.764;2023-09-12T12:36:02;11;;;3;;
75342;SDS011;63936;51.006;13.764;2023-09-12T12:38:02;11;;;3;;
75342;SDS011;63936;51.006;13.764;2023-09-12T12:40:01;9;;;3;;
75342;SDS011;63936;51.006;13.764;2023-09-12T12:42:01;9;;;3;;
75342;SDS011;63936;51.006;13.764;2023-09-12T12:44:01;14;;;3;;
75342;SDS011;63936;51.006;13.764;2023-09-12T12:46:01;8;;;3;;
75342;SDS011;63936;51.006;13.764;2023-09-12T12:48:02;11;;;3;;
75342;SDS011;63936;51.006;13.764;2023-09-12T12:50:02;14;;;3;;